KEUL

Details ICAO KEUL
Name CALDWELL INDUSTRIAL
Region United States
Timezone America/Boise (UTC-6.0)
Plans Departing 22
Arriving 5
Stats Elevation 2,431 ft / 741 m (AMSL)
Location 43.641847° -116.635763°
Runways 1
Magnetic Variation 13.443° E
Sunrise 2018-05-27 12:12:20 UTC / 2018-05-27 06:12:20 Local
Sunset 2018-05-28 03:18:01 UTC / 2018-05-27 21:18:01 Local
Advertisement - Login to hide

Runways

ID Width Length Bearing (true) Bearing (mag) Surface Threshold Offset Overrun Length
12 100 ft / 30 m 5,496 ft / 1,675 m 135.21° 121.77° Asphalt 0 ft / 0 m 0 ft / 0 m
30 100 ft / 30 m 5,496 ft / 1,675 m 315.22° 301.78° Asphalt 0 ft / 0 m 0 ft / 0 m

Map

Weather


0- 5 10 15 20 25 30 35+ Temperature / ° C

Clouds and Precipitation
Forecast for 2018-05-27 12:00 UTC. Updated 5 hours ago

Ground ~20,000 ft ~40,000 ft Winds

METAR

KEUL 271556Z AUTO 28015KT 10SM CLR 18/07 A3001 RMK AO2 SLP152 T01830072

TAF

KEUL 271120Z 2712/2812 27012G22KT P6SM SCT100 FM271700 31015G25KT P6SM BKN120 FM280000 31015G25KT P6SM VCTS SCT050CB BKN100 TEMPO 2800/2803 VRB25G35KT -TSRA BKN050CB FM280300 30012KT P6SM BKN100

Frequencies

Recorded 135.07 MHz AWOS 3
Approach 119.60 MHz BOISE APP/DEP
Unicom 122.70 MHz CTAF/UNICOM
Warning: Do not use this data for real-world aviation or navigation. No guarantee of current accuracy is given.